sensor_id;sensor_type;location;lat;lon;timestamp;P1;durP1;ratioP1;P2;durP2;ratioP2
13085;SDS011;6609;49.882;8.664;2023-09-19T00:01:43;4.70;;;1.80;;
13085;SDS011;6609;49.882;8.664;2023-09-19T00:04:12;5.70;;;1.90;;
13085;SDS011;6609;49.882;8.664;2023-09-19T00:06:39;4.60;;;2.13;;
13085;SDS011;6609;49.882;8.664;2023-09-19T00:09:07;7.13;;;2.30;;
13085;SDS011;6609;49.882;8.664;2023-09-19T00:11:35;3.43;;;1.60;;
13085;SDS011;6609;49.882;8.664;2023-09-19T00:14:03;5.20;;;2.27;;
13085;SDS011;6609;49.882;8.664;2023-09-19T00:16:33;5.30;;;1.90;;
13085;SDS011;6609;49.882;8.664;2023-09-19T00:19:01;5.97;;;2.33;;
13085;SDS011;6609;49.882;8.664;2023-09-19T00:21:35;3.73;;;1.67;;
13085;SDS011;6609;49.882;8.664;2023-09-19T00:24:02;8.03;;;2.40;;
13085;SDS011;6609;49.882;8.664;2023-09-19T00:26:31;6.63;;;2.17;;
13085;SDS011;6609;49.882;8.664;2023-09-19T00:28:59;7.73;;;2.67;;
13085;SDS011;6609;49.882;8.664;2023-09-19T00:31:29;5.07;;;2.00;;
13085;SDS011;6609;49.882;8.664;2023-09-19T00:33:57;4.63;;;1.97;;
13085;SDS011;6609;49.882;8.664;2023-09-19T00:36:31;7.67;;;2.10;;
13085;SDS011;6609;49.882;8.664;2023-09-19T00:39:01;5.43;;;2.20;;
13085;SDS011;6609;49.882;8.664;2023-09-19T00:41:30;4.93;;;1.90;;
13085;SDS011;6609;49.882;8.664;2023-09-19T00:43:57;2.83;;;1.43;;
13085;SDS011;6609;49.882;8.664;2023-09-19T00:46:25;5.30;;;2.10;;
13085;SDS011;6609;49.882;8.664;2023-09-19T00:48:52;5.90;;;1.70;;
13085;SDS011;6609;49.882;8.664;2023-09-19T00:51:19;4.43;;;2.00;;
13085;SDS011;6609;49.882;8.664;2023-09-19T00:53:46;4.13;;;1.90;;
13085;SDS011;6609;49.882;8.664;2023-09-19T00:56:15;4.47;;;1.97;;
13085;SDS011;6609;49.882;8.664;2023-09-19T00:58:43;5.90;;;2.07;;
13085;SDS011;6609;49.882;8.664;2023-09-19T01:01:11;6.17;;;2.43;;
13085;SDS011;6609;49.882;8.664;2023-09-19T01:03:41;5.60;;;2.00;;
13085;SDS011;6609;49.882;8.664;2023-09-19T01:06:08;4.83;;;1.60;;
13085;SDS011;6609;49.882;8.664;2023-09-19T01:08:36;3.87;;;1.90;;
13085;SDS011;6609;49.882;8.664;2023-09-19T01:11:06;4.63;;;1.47;;
13085;SDS011;6609;49.882;8.664;2023-09-19T01:13:40;5.60;;;2.40;;
13085;SDS011;6609;49.882;8.664;2023-09-19T01:16:15;6.37;;;2.97;;
13085;SDS011;6609;49.882;8.664;2023-09-19T01:18:47;5.43;;;1.97;;
13085;SDS011;6609;49.882;8.664;2023-09-19T01:21:28;4.50;;;2.13;;
13085;SDS011;6609;49.882;8.664;2023-09-19T01:24:09;4.33;;;2.10;;
13085;SDS011;6609;49.882;8.664;2023-09-19T01:26:45;5.43;;;2.17;;
13085;SDS011;6609;49.882;8.664;2023-09-19T01:29:26;5.13;;;1.97;;
13085;SDS011;6609;49.882;8.664;2023-09-19T01:32:03;6.57;;;2.47;;
13085;SDS011;6609;49.882;8.664;2023-09-19T01:34:43;8.00;;;3.17;;
13085;SDS011;6609;49.882;8.664;2023-09-19T01:37:11;6.50;;;2.63;;
13085;SDS011;6609;49.882;8.664;2023-09-19T01:39:39;4.73;;;2.27;;
13085;SDS011;6609;49.882;8.664;2023-09-19T01:42:07;3.30;;;1.70;;
13085;SDS011;6609;49.882;8.664;2023-09-19T01:44:40;5.97;;;2.10;;
13085;SDS011;6609;49.882;8.664;2023-09-19T01:47:19;7.00;;;2.50;;
13085;SDS011;6609;49.882;8.664;2023-09-19T01:49:50;7.43;;;2.70;;
13085;SDS011;6609;49.882;8.664;2023-09-19T01:52:22;6.63;;;2.43;;
13085;SDS011;6609;49.882;8.664;2023-09-19T01:54:55;5.70;;;2.37;;
13085;SDS011;6609;49.882;8.664;2023-09-19T01:57:30;6.07;;;2.33;;
13085;SDS011;6609;49.882;8.664;2023-09-19T02:00:01;5.43;;;2.33;;
13085;SDS011;6609;49.882;8.664;2023-09-19T02:02:33;8.67;;;2.33;;
13085;SDS011;6609;49.882;8.664;2023-09-19T02:05:01;6.87;;;2.20;;
13085;SDS011;6609;49.882;8.664;2023-09-19T02:07:28;4.90;;;2.27;;
13085;SDS011;6609;49.882;8.664;2023-09-19T02:09:56;6.37;;;2.50;;
13085;SDS011;6609;49.882;8.664;2023-09-19T02:12:24;4.87;;;2.23;;
13085;SDS011;6609;49.882;8.664;2023-09-19T02:14:51;5.53;;;2.40;;
13085;SDS011;6609;49.882;8.664;2023-09-19T02:17:18;7.47;;;2.27;;
13085;SDS011;6609;49.882;8.664;2023-09-19T02:19:46;4.47;;;2.10;;
13085;SDS011;6609;49.882;8.664;2023-09-19T02:22:13;3.87;;;2.10;;
13085;SDS011;6609;49.882;8.664;2023-09-19T02:24:41;4.80;;;2.37;;
13085;SDS011;6609;49.882;8.664;2023-09-19T02:27:08;6.50;;;2.27;;
13085;SDS011;6609;49.882;8.664;2023-09-19T02:29:37;5.80;;;2.23;;
13085;SDS011;6609;49.882;8.664;2023-09-19T02:32:04;8.13;;;2.67;;
13085;SDS011;6609;49.882;8.664;2023-09-19T02:34:32;9.97;;;3.57;;
13085;SDS011;6609;49.882;8.664;2023-09-19T02:37:02;7.17;;;2.60;;
13085;SDS011;6609;49.882;8.664;2023-09-19T02:39:31;6.30;;;2.10;;
13085;SDS011;6609;49.882;8.664;2023-09-19T02:41:58;5.30;;;2.10;;
13085;SDS011;6609;49.882;8.664;2023-09-19T02:44:24;7.13;;;2.73;;
13085;SDS011;6609;49.882;8.664;2023-09-19T02:46:52;5.93;;;2.67;;
13085;SDS011;6609;49.882;8.664;2023-09-19T02:49:19;6.43;;;2.57;;
13085;SDS011;6609;49.882;8.664;2023-09-19T02:51:46;5.80;;;2.53;;
13085;SDS011;6609;49.882;8.664;2023-09-19T02:54:14;4.93;;;2.10;;
13085;SDS011;6609;49.882;8.664;2023-09-19T02:56:42;6.03;;;2.40;;
13085;SDS011;6609;49.882;8.664;2023-09-19T02:59:09;7.43;;;2.77;;
13085;SDS011;6609;49.882;8.664;2023-09-19T03:01:36;6.23;;;2.60;;
13085;SDS011;6609;49.882;8.664;2023-09-19T03:04:03;4.23;;;2.00;;
13085;SDS011;6609;49.882;8.664;2023-09-19T03:06:32;6.13;;;2.50;;
13085;SDS011;6609;49.882;8.664;2023-09-19T03:08:59;6.57;;;2.63;;
13085;SDS011;6609;49.882;8.664;2023-09-19T03:11:29;8.50;;;2.40;;
13085;SDS011;6609;49.882;8.664;2023-09-19T03:13:56;4.03;;;2.00;;
13085;SDS011;6609;49.882;8.664;2023-09-19T03:16:23;7.03;;;2.10;;
13085;SDS011;6609;49.882;8.664;2023-09-19T03:18:50;5.20;;;2.37;;
13085;SDS011;6609;49.882;8.664;2023-09-19T03:21:17;8.97;;;2.93;;
13085;SDS011;6609;49.882;8.664;2023-09-19T03:23:44;6.20;;;2.63;;
13085;SDS011;6609;49.882;8.664;2023-09-19T03:26:11;6.63;;;2.80;;
13085;SDS011;6609;49.882;8.664;2023-09-19T03:28:40;4.33;;;2.17;;
13085;SDS011;6609;49.882;8.664;2023-09-19T03:31:08;5.80;;;2.70;;
13085;SDS011;6609;49.882;8.664;2023-09-19T03:33:35;6.23;;;2.27;;
13085;SDS011;6609;49.882;8.664;2023-09-19T03:36:02;5.13;;;2.30;;
13085;SDS011;6609;49.882;8.664;2023-09-19T03:38:30;6.13;;;2.43;;
13085;SDS011;6609;49.882;8.664;2023-09-19T03:40:58;5.50;;;2.30;;
13085;SDS011;6609;49.882;8.664;2023-09-19T03:43:25;4.63;;;2.43;;
13085;SDS011;6609;49.882;8.664;2023-09-19T03:45:53;6.73;;;2.47;;
13085;SDS011;6609;49.882;8.664;2023-09-19T03:48:20;5.13;;;2.30;;
13085;SDS011;6609;49.882;8.664;2023-09-19T03:50:48;6.27;;;2.47;;
13085;SDS011;6609;49.882;8.664;2023-09-19T03:53:14;4.47;;;2.37;;
13085;SDS011;6609;49.882;8.664;2023-09-19T03:55:41;4.83;;;2.27;;
13085;SDS011;6609;49.882;8.664;2023-09-19T03:58:10;5.00;;;2.50;;
13085;SDS011;6609;49.882;8.664;2023-09-19T04:00:37;6.33;;;2.63;;
13085;SDS011;6609;49.882;8.664;2023-09-19T04:03:05;6.17;;;2.53;;
13085;SDS011;6609;49.882;8.664;2023-09-19T04:05:32;7.83;;;3.00;;
13085;SDS011;6609;49.882;8.664;2023-09-19T04:07:59;5.13;;;2.30;;
13085;SDS011;6609;49.882;8.664;2023-09-19T04:10:26;4.33;;;2.17;;
13085;SDS011;6609;49.882;8.664;2023-09-19T04:12:54;5.67;;;2.60;;
13085;SDS011;6609;49.882;8.664;2023-09-19T04:15:22;4.90;;;2.13;;
13085;SDS011;6609;49.882;8.664;2023-09-19T04:17:49;3.50;;;2.23;;
13085;SDS011;6609;49.882;8.664;2023-09-19T04:20:18;3.83;;;2.10;;
13085;SDS011;6609;49.882;8.664;2023-09-19T04:22:45;4.57;;;2.57;;
13085;SDS011;6609;49.882;8.664;2023-09-19T04:25:12;4.27;;;2.43;;
13085;SDS011;6609;49.882;8.664;2023-09-19T04:27:39;5.30;;;2.60;;
13085;SDS011;6609;49.882;8.664;2023-09-19T04:30:07;3.50;;;2.10;;
13085;SDS011;6609;49.882;8.664;2023-09-19T04:32:36;4.60;;;2.40;;
13085;SDS011;6609;49.882;8.664;2023-09-19T04:35:05;8.17;;;3.30;;
13085;SDS011;6609;49.882;8.664;2023-09-19T04:37:36;6.40;;;2.70;;
13085;SDS011;6609;49.882;8.664;2023-09-19T04:40:05;6.23;;;2.60;;
13085;SDS011;6609;49.882;8.664;2023-09-19T04:42:37;5.60;;;2.37;;
13085;SDS011;6609;49.882;8.664;2023-09-19T04:45:04;4.23;;;2.43;;
13085;SDS011;6609;49.882;8.664;2023-09-19T04:47:32;8.33;;;3.10;;
13085;SDS011;6609;49.882;8.664;2023-09-19T04:49:59;9.43;;;3.00;;
13085;SDS011;6609;49.882;8.664;2023-09-19T04:52:26;7.47;;;3.30;;
13085;SDS011;6609;49.882;8.664;2023-09-19T04:54:55;5.80;;;2.67;;
13085;SDS011;6609;49.882;8.664;2023-09-19T04:57:23;6.77;;;3.23;;
13085;SDS011;6609;49.882;8.664;2023-09-19T04:59:50;6.43;;;3.03;;
13085;SDS011;6609;49.882;8.664;2023-09-19T05:02:19;6.53;;;2.90;;
13085;SDS011;6609;49.882;8.664;2023-09-19T05:04:47;9.33;;;4.30;;
13085;SDS011;6609;49.882;8.664;2023-09-19T05:07:14;14.70;;;5.83;;
13085;SDS011;6609;49.882;8.664;2023-09-19T05:09:42;7.77;;;3.37;;
13085;SDS011;6609;49.882;8.664;2023-09-19T05:12:11;8.37;;;4.03;;
13085;SDS011;6609;49.882;8.664;2023-09-19T05:14:38;12.17;;;3.93;;
13085;SDS011;6609;49.882;8.664;2023-09-19T05:17:06;6.63;;;3.03;;
13085;SDS011;6609;49.882;8.664;2023-09-19T05:19:33;8.60;;;3.90;;
13085;SDS011;6609;49.882;8.664;2023-09-19T05:22:03;7.83;;;3.97;;
13085;SDS011;6609;49.882;8.664;2023-09-19T05:24:32;10.43;;;4.03;;
13085;SDS011;6609;49.882;8.664;2023-09-19T05:26:59;7.50;;;3.73;;
13085;SDS011;6609;49.882;8.664;2023-09-19T05:29:27;6.77;;;3.70;;
13085;SDS011;6609;49.882;8.664;2023-09-19T05:31:54;6.53;;;3.43;;
13085;SDS011;6609;49.882;8.664;2023-09-19T05:34:21;7.90;;;4.20;;
13085;SDS011;6609;49.882;8.664;2023-09-19T05:36:50;7.33;;;3.60;;
13085;SDS011;6609;49.882;8.664;2023-09-19T05:39:19;7.07;;;3.67;;
13085;SDS011;6609;49.882;8.664;2023-09-19T05:41:46;9.07;;;4.03;;
13085;SDS011;6609;49.882;8.664;2023-09-19T05:44:13;8.27;;;4.20;;
13085;SDS011;6609;49.882;8.664;2023-09-19T05:46:41;10.13;;;3.97;;
13085;SDS011;6609;49.882;8.664;2023-09-19T05:49:08;6.93;;;3.70;;
13085;SDS011;6609;49.882;8.664;2023-09-19T05:51:35;7.80;;;4.20;;
13085;SDS011;6609;49.882;8.664;2023-09-19T05:54:03;10.70;;;3.90;;
13085;SDS011;6609;49.882;8.664;2023-09-19T05:56:30;11.17;;;4.47;;
13085;SDS011;6609;49.882;8.664;2023-09-19T05:58:57;10.23;;;3.90;;
13085;SDS011;6609;49.882;8.664;2023-09-19T06:01:24;10.37;;;4.23;;
13085;SDS011;6609;49.882;8.664;2023-09-19T06:03:53;11.23;;;4.63;;
13085;SDS011;6609;49.882;8.664;2023-09-19T06:06:21;8.73;;;4.07;;
13085;SDS011;6609;49.882;8.664;2023-09-19T06:08:49;8.73;;;3.97;;
13085;SDS011;6609;49.882;8.664;2023-09-19T06:11:16;10.60;;;4.37;;
13085;SDS011;6609;49.882;8.664;2023-09-19T06:13:45;6.00;;;3.50;;
13085;SDS011;6609;49.882;8.664;2023-09-19T06:16:13;7.33;;;3.53;;
13085;SDS011;6609;49.882;8.664;2023-09-19T06:18:40;11.17;;;4.10;;
13085;SDS011;6609;49.882;8.664;2023-09-19T06:21:08;7.03;;;3.30;;
13085;SDS011;6609;49.882;8.664;2023-09-19T06:23:35;7.07;;;3.73;;
13085;SDS011;6609;49.882;8.664;2023-09-19T06:26:02;10.87;;;4.17;;
13085;SDS011;6609;49.882;8.664;2023-09-19T06:28:31;7.77;;;3.70;;
13085;SDS011;6609;49.882;8.664;2023-09-19T06:30:58;9.13;;;3.97;;
13085;SDS011;6609;49.882;8.664;2023-09-19T06:33:25;9.87;;;4.23;;
13085;SDS011;6609;49.882;8.664;2023-09-19T06:35:52;10.13;;;4.40;;
13085;SDS011;6609;49.882;8.664;2023-09-19T06:38:25;8.60;;;3.40;;
13085;SDS011;6609;49.882;8.664;2023-09-19T06:40:53;6.37;;;3.00;;
13085;SDS011;6609;49.882;8.664;2023-09-19T06:43:20;8.60;;;3.73;;
13085;SDS011;6609;49.882;8.664;2023-09-19T06:45:47;9.47;;;3.60;;
13085;SDS011;6609;49.882;8.664;2023-09-19T06:48:15;8.63;;;3.67;;
13085;SDS011;6609;49.882;8.664;2023-09-19T06:50:43;4.97;;;2.70;;
13085;SDS011;6609;49.882;8.664;2023-09-19T06:53:10;6.43;;;2.73;;
13085;SDS011;6609;49.882;8.664;2023-09-19T06:55:39;9.63;;;3.30;;
13085;SDS011;6609;49.882;8.664;2023-09-19T06:58:09;7.33;;;3.03;;
13085;SDS011;6609;49.882;8.664;2023-09-19T07:00:36;11.80;;;3.33;;
13085;SDS011;6609;49.882;8.664;2023-09-19T07:03:04;6.40;;;2.80;;
13085;SDS011;6609;49.882;8.664;2023-09-19T07:05:33;9.80;;;3.53;;
13085;SDS011;6609;49.882;8.664;2023-09-19T07:08:02;9.43;;;3.87;;
13085;SDS011;6609;49.882;8.664;2023-09-19T07:10:31;5.83;;;3.30;;
13085;SDS011;6609;49.882;8.664;2023-09-19T07:13:00;7.13;;;3.17;;
13085;SDS011;6609;49.882;8.664;2023-09-19T07:15:28;10.93;;;3.50;;
13085;SDS011;6609;49.882;8.664;2023-09-19T07:17:55;13.23;;;3.73;;
13085;SDS011;6609;49.882;8.664;2023-09-19T07:20:23;10.03;;;3.30;;
13085;SDS011;6609;49.882;8.664;2023-09-19T07:22:51;6.80;;;3.70;;
13085;SDS011;6609;49.882;8.664;2023-09-19T07:25:21;7.47;;;3.13;;
13085;SDS011;6609;49.882;8.664;2023-09-19T07:27:49;7.03;;;3.10;;
13085;SDS011;6609;49.882;8.664;2023-09-19T07:30:18;7.40;;;3.00;;
13085;SDS011;6609;49.882;8.664;2023-09-19T07:32:45;8.53;;;3.53;;
13085;SDS011;6609;49.882;8.664;2023-09-19T07:35:12;10.07;;;3.40;;
13085;SDS011;6609;49.882;8.664;2023-09-19T07:37:40;10.87;;;3.40;;
13085;SDS011;6609;49.882;8.664;2023-09-19T07:40:07;11.80;;;4.10;;
13085;SDS011;6609;49.882;8.664;2023-09-19T07:42:34;6.50;;;3.17;;
13085;SDS011;6609;49.882;8.664;2023-09-19T07:45:04;8.27;;;3.40;;
13085;SDS011;6609;49.882;8.664;2023-09-19T07:47:34;10.60;;;3.50;;
13085;SDS011;6609;49.882;8.664;2023-09-19T07:50:01;12.00;;;4.07;;
13085;SDS011;6609;49.882;8.664;2023-09-19T07:52:28;9.83;;;3.80;;
13085;SDS011;6609;49.882;8.664;2023-09-19T07:54:55;6.40;;;3.03;;
13085;SDS011;6609;49.882;8.664;2023-09-19T07:57:22;9.23;;;2.77;;
13085;SDS011;6609;49.882;8.664;2023-09-19T07:59:49;9.13;;;3.00;;
13085;SDS011;6609;49.882;8.664;2023-09-19T08:02:16;10.03;;;2.83;;
13085;SDS011;6609;49.882;8.664;2023-09-19T08:04:45;7.40;;;2.83;;
13085;SDS011;6609;49.882;8.664;2023-09-19T08:07:12;5.07;;;2.57;;
13085;SDS011;6609;49.882;8.664;2023-09-19T08:09:39;10.57;;;2.70;;
13085;SDS011;6609;49.882;8.664;2023-09-19T08:12:07;6.70;;;2.67;;
13085;SDS011;6609;49.882;8.664;2023-09-19T08:14:35;7.10;;;2.60;;
13085;SDS011;6609;49.882;8.664;2023-09-19T08:17:02;9.57;;;3.43;;
13085;SDS011;6609;49.882;8.664;2023-09-19T08:19:30;10.37;;;3.03;;
13085;SDS011;6609;49.882;8.664;2023-09-19T08:21:59;12.20;;;2.80;;
13085;SDS011;6609;49.882;8.664;2023-09-19T08:24:26;6.07;;;2.80;;
13085;SDS011;6609;49.882;8.664;2023-09-19T08:26:53;5.40;;;2.30;;
13085;SDS011;6609;49.882;8.664;2023-09-19T08:29:21;7.10;;;2.30;;
13085;SDS011;6609;49.882;8.664;2023-09-19T08:31:53;6.67;;;3.10;;
13085;SDS011;6609;49.882;8.664;2023-09-19T08:34:21;8.60;;;3.20;;
13085;SDS011;6609;49.882;8.664;2023-09-19T08:36:48;5.83;;;2.53;;
13085;SDS011;6609;49.882;8.664;2023-09-19T08:39:19;10.33;;;3.27;;
13085;SDS011;6609;49.882;8.664;2023-09-19T08:41:46;4.47;;;1.77;;
13085;SDS011;6609;49.882;8.664;2023-09-19T08:44:13;9.33;;;2.67;;
13085;SDS011;6609;49.882;8.664;2023-09-19T08:46:40;7.00;;;2.60;;
13085;SDS011;6609;49.882;8.664;2023-09-19T08:49:08;6.40;;;2.63;;
13085;SDS011;6609;49.882;8.664;2023-09-19T08:51:39;7.33;;;2.57;;
13085;SDS011;6609;49.882;8.664;2023-09-19T08:54:09;7.73;;;2.70;;
13085;SDS011;6609;49.882;8.664;2023-09-19T08:56:45;5.37;;;2.27;;
13085;SDS011;6609;49.882;8.664;2023-09-19T08:59:13;5.73;;;2.53;;
13085;SDS011;6609;49.882;8.664;2023-09-19T09:01:41;5.93;;;2.83;;
13085;SDS011;6609;49.882;8.664;2023-09-19T09:04:08;7.33;;;2.73;;
13085;SDS011;6609;49.882;8.664;2023-09-19T09:06:38;6.63;;;2.50;;
13085;SDS011;6609;49.882;8.664;2023-09-19T09:09:05;5.50;;;2.43;;
13085;SDS011;6609;49.882;8.664;2023-09-19T09:11:34;8.30;;;3.33;;
13085;SDS011;6609;49.882;8.664;2023-09-19T09:14:03;7.87;;;2.00;;
13085;SDS011;6609;49.882;8.664;2023-09-19T09:16:33;7.17;;;2.17;;
13085;SDS011;6609;49.882;8.664;2023-09-19T09:19:00;5.13;;;2.20;;
13085;SDS011;6609;49.882;8.664;2023-09-19T09:21:27;7.80;;;2.73;;
13085;SDS011;6609;49.882;8.664;2023-09-19T09:23:54;7.63;;;2.53;;
13085;SDS011;6609;49.882;8.664;2023-09-19T09:29:08;7.60;;;2.90;;
13085;SDS011;6609;49.882;8.664;2023-09-19T09:31:35;5.53;;;2.10;;
13085;SDS011;6609;49.882;8.664;2023-09-19T09:34:03;8.03;;;3.60;;
13085;SDS011;6609;49.882;8.664;2023-09-19T09:36:33;5.63;;;2.73;;
13085;SDS011;6609;49.882;8.664;2023-09-19T09:39:01;6.83;;;2.37;;
13085;SDS011;6609;49.882;8.664;2023-09-19T09:41:40;6.33;;;2.67;;
13085;SDS011;6609;49.882;8.664;2023-09-19T09:44:13;6.17;;;2.60;;
13085;SDS011;6609;49.882;8.664;2023-09-19T09:46:42;6.63;;;2.30;;
13085;SDS011;6609;49.882;8.664;2023-09-19T09:49:27;7.13;;;2.10;;
13085;SDS011;6609;49.882;8.664;2023-09-19T09:51:59;7.40;;;2.50;;
13085;SDS011;6609;49.882;8.664;2023-09-19T09:54:26;5.03;;;2.50;;
13085;SDS011;6609;49.882;8.664;2023-09-19T09:56:59;6.23;;;2.13;;
13085;SDS011;6609;49.882;8.664;2023-09-19T09:59:46;4.93;;;2.20;;
13085;SDS011;6609;49.882;8.664;2023-09-19T10:02:15;5.20;;;2.23;;
13085;SDS011;6609;49.882;8.664;2023-09-19T10:04:48;5.03;;;2.57;;
13085;SDS011;6609;49.882;8.664;2023-09-19T10:07:27;8.63;;;2.60;;
13085;SDS011;6609;49.882;8.664;2023-09-19T10:09:58;7.77;;;2.53;;
13085;SDS011;6609;49.882;8.664;2023-09-19T10:12:34;7.27;;;1.73;;
13085;SDS011;6609;49.882;8.664;2023-09-19T10:15:05;6.67;;;2.57;;
13085;SDS011;6609;49.882;8.664;2023-09-19T10:17:35;4.57;;;1.90;;
13085;SDS011;6609;49.882;8.664;2023-09-19T10:20:03;6.27;;;2.50;;
13085;SDS011;6609;49.882;8.664;2023-09-19T10:22:47;8.33;;;3.00;;
13085;SDS011;6609;49.882;8.664;2023-09-19T10:25:22;7.37;;;2.57;;
13085;SDS011;6609;49.882;8.664;2023-09-19T10:27:50;6.73;;;2.47;;
13085;SDS011;6609;49.882;8.664;2023-09-19T10:30:21;5.33;;;2.33;;
13085;SDS011;6609;49.882;8.664;2023-09-19T10:32:49;9.33;;;2.63;;
13085;SDS011;6609;49.882;8.664;2023-09-19T10:35:21;8.63;;;2.57;;
13085;SDS011;6609;49.882;8.664;2023-09-19T10:37:50;7.67;;;2.77;;
13085;SDS011;6609;49.882;8.664;2023-09-19T10:40:20;7.27;;;2.67;;
13085;SDS011;6609;49.882;8.664;2023-09-19T10:42:52;6.37;;;2.67;;
13085;SDS011;6609;49.882;8.664;2023-09-19T10:45:22;8.40;;;2.87;;
13085;SDS011;6609;49.882;8.664;2023-09-19T10:47:51;6.53;;;2.37;;
13085;SDS011;6609;49.882;8.664;2023-09-19T10:50:19;10.70;;;2.87;;
13085;SDS011;6609;49.882;8.664;2023-09-19T10:52:47;6.97;;;2.80;;
13085;SDS011;6609;49.882;8.664;2023-09-19T10:55:23;7.27;;;2.67;;
13085;SDS011;6609;49.882;8.664;2023-09-19T10:57:54;8.17;;;2.83;;
13085;SDS011;6609;49.882;8.664;2023-09-19T11:00:24;5.53;;;2.60;;
13085;SDS011;6609;49.882;8.664;2023-09-19T11:05:59;7.40;;;2.27;;
13085;SDS011;6609;49.882;8.664;2023-09-19T11:08:30;8.93;;;2.80;;
13085;SDS011;6609;49.882;8.664;2023-09-19T11:10:59;8.43;;;2.53;;
13085;SDS011;6609;49.882;8.664;2023-09-19T11:13:28;7.40;;;2.23;;
13085;SDS011;6609;49.882;8.664;2023-09-19T11:16:04;7.57;;;2.57;;
13085;SDS011;6609;49.882;8.664;2023-09-19T11:29:56;9.47;;;2.93;;
13085;SDS011;6609;49.882;8.664;2023-09-19T11:38:34;7.40;;;2.40;;
13085;SDS011;6609;49.882;8.664;2023-09-19T11:41:38;8.17;;;2.33;;
13085;SDS011;6609;49.882;8.664;2023-09-19T11:47:03;8.57;;;2.60;;
13085;SDS011;6609;49.882;8.664;2023-09-19T11:49:32;6.40;;;2.70;;
13085;SDS011;6609;49.882;8.664;2023-09-19T11:52:01;5.57;;;2.00;;
13085;SDS011;6609;49.882;8.664;2023-09-19T11:54:32;8.17;;;2.60;;
13085;SDS011;6609;49.882;8.664;2023-09-19T11:57:00;4.53;;;2.17;;
13085;SDS011;6609;49.882;8.664;2023-09-19T11:59:28;6.47;;;2.40;;
13085;SDS011;6609;49.882;8.664;2023-09-19T12:01:55;7.93;;;2.27;;
13085;SDS011;6609;49.882;8.664;2023-09-19T12:04:36;6.17;;;2.50;;
13085;SDS011;6609;49.882;8.664;2023-09-19T12:07:04;7.43;;;2.30;;
13085;SDS011;6609;49.882;8.664;2023-09-19T12:09:33;7.53;;;2.60;;
13085;SDS011;6609;49.882;8.664;2023-09-19T12:11:59;4.50;;;2.07;;
13085;SDS011;6609;49.882;8.664;2023-09-19T12:14:26;4.20;;;1.93;;
13085;SDS011;6609;49.882;8.664;2023-09-19T12:16:54;5.03;;;2.10;;
13085;SDS011;6609;49.882;8.664;2023-09-19T12:19:21;6.17;;;2.57;;
13085;SDS011;6609;49.882;8.664;2023-09-19T12:21:56;7.60;;;2.20;;
13085;SDS011;6609;49.882;8.664;2023-09-19T12:24:24;6.50;;;2.13;;
13085;SDS011;6609;49.882;8.664;2023-09-19T12:26:53;8.87;;;2.20;;
13085;SDS011;6609;49.882;8.664;2023-09-19T12:29:22;5.97;;;2.30;;
13085;SDS011;6609;49.882;8.664;2023-09-19T12:31:52;6.07;;;2.20;;
13085;SDS011;6609;49.882;8.664;2023-09-19T12:34:22;6.23;;;2.57;;
13085;SDS011;6609;49.882;8.664;2023-09-19T12:37:03;8.07;;;2.03;;
13085;SDS011;6609;49.882;8.664;2023-09-19T12:39:31;8.90;;;2.37;;
13085;SDS011;6609;49.882;8.664;2023-09-19T12:41:59;5.73;;;2.17;;
13085;SDS011;6609;49.882;8.664;2023-09-19T12:44:29;9.30;;;2.73;;
13085;SDS011;6609;49.882;8.664;2023-09-19T12:46:56;6.50;;;2.77;;
13085;SDS011;6609;49.882;8.664;2023-09-19T12:49:27;5.50;;;2.60;;
13085;SDS011;6609;49.882;8.664;2023-09-19T12:51:54;7.40;;;2.13;;
13085;SDS011;6609;49.882;8.664;2023-09-19T12:54:24;8.23;;;2.70;;
13085;SDS011;6609;49.882;8.664;2023-09-19T12:56:51;6.87;;;2.60;;
13085;SDS011;6609;49.882;8.664;2023-09-19T12:59:28;5.93;;;2.73;;
13085;SDS011;6609;49.882;8.664;2023-09-19T13:02:03;7.90;;;2.20;;
13085;SDS011;6609;49.882;8.664;2023-09-19T13:04:32;5.60;;;2.10;;
13085;SDS011;6609;49.882;8.664;2023-09-19T13:07:05;8.60;;;2.40;;
13085;SDS011;6609;49.882;8.664;2023-09-19T13:09:34;7.83;;;2.27;;
13085;SDS011;6609;49.882;8.664;2023-09-19T13:12:03;7.13;;;2.37;;
13085;SDS011;6609;49.882;8.664;2023-09-19T13:14:34;6.83;;;2.30;;
13085;SDS011;6609;49.882;8.664;2023-09-19T13:17:05;6.73;;;2.43;;
13085;SDS011;6609;49.882;8.664;2023-09-19T13:19:41;4.80;;;2.20;;
13085;SDS011;6609;49.882;8.664;2023-09-19T13:24:57;7.37;;;2.40;;
13085;SDS011;6609;49.882;8.664;2023-09-19T13:27:24;6.17;;;2.43;;
13085;SDS011;6609;49.882;8.664;2023-09-19T13:29:53;7.97;;;2.33;;
13085;SDS011;6609;49.882;8.664;2023-09-19T13:32:20;5.50;;;2.27;;
13085;SDS011;6609;49.882;8.664;2023-09-19T13:34:47;4.97;;;2.27;;
13085;SDS011;6609;49.882;8.664;2023-09-19T13:37:14;7.90;;;2.43;;
13085;SDS011;6609;49.882;8.664;2023-09-19T13:39:43;5.33;;;2.37;;
13085;SDS011;6609;49.882;8.664;2023-09-19T13:42:12;5.43;;;1.80;;
13085;SDS011;6609;49.882;8.664;2023-09-19T13:44:39;5.30;;;1.70;;
13085;SDS011;6609;49.882;8.664;2023-09-19T13:47:07;3.23;;;1.80;;
13085;SDS011;6609;49.882;8.664;2023-09-19T13:49:35;7.27;;;2.50;;
13085;SDS011;6609;49.882;8.664;2023-09-19T13:52:03;5.97;;;2.20;;
13085;SDS011;6609;49.882;8.664;2023-09-19T13:54:30;5.43;;;2.27;;
13085;SDS011;6609;49.882;8.664;2023-09-19T13:56:57;4.00;;;1.73;;
13085;SDS011;6609;49.882;8.664;2023-09-19T13:59:26;6.03;;;2.00;;
13085;SDS011;6609;49.882;8.664;2023-09-19T14:01:53;5.53;;;1.90;;
13085;SDS011;6609;49.882;8.664;2023-09-19T14:04:21;4.70;;;2.30;;
13085;SDS011;6609;49.882;8.664;2023-09-19T14:06:48;6.47;;;2.37;;
13085;SDS011;6609;49.882;8.664;2023-09-19T14:09:15;7.07;;;2.70;;
13085;SDS011;6609;49.882;8.664;2023-09-19T14:11:44;4.77;;;2.20;;
13085;SDS011;6609;49.882;8.664;2023-09-19T14:14:12;6.37;;;2.40;;
13085;SDS011;6609;49.882;8.664;2023-09-19T14:16:40;3.93;;;1.70;;
13085;SDS011;6609;49.882;8.664;2023-09-19T14:19:07;3.70;;;1.70;;
13085;SDS011;6609;49.882;8.664;2023-09-19T14:21:35;5.83;;;2.67;;
13085;SDS011;6609;49.882;8.664;2023-09-19T14:24:04;7.87;;;2.00;;
13085;SDS011;6609;49.882;8.664;2023-09-19T14:26:34;5.23;;;2.10;;
13085;SDS011;6609;49.882;8.664;2023-09-19T14:29:01;4.17;;;1.90;;
13085;SDS011;6609;49.882;8.664;2023-09-19T14:31:28;4.27;;;1.87;;
13085;SDS011;6609;49.882;8.664;2023-09-19T14:33:55;7.90;;;2.80;;
13085;SDS011;6609;49.882;8.664;2023-09-19T14:36:21;6.47;;;2.40;;
13085;SDS011;6609;49.882;8.664;2023-09-19T14:38:51;7.23;;;2.77;;
13085;SDS011;6609;49.882;8.664;2023-09-19T14:41:19;6.03;;;2.33;;
13085;SDS011;6609;49.882;8.664;2023-09-19T14:43:47;11.57;;;3.20;;
13085;SDS011;6609;49.882;8.664;2023-09-19T14:46:14;8.67;;;2.83;;
13085;SDS011;6609;49.882;8.664;2023-09-19T14:48:44;12.83;;;3.80;;
13085;SDS011;6609;49.882;8.664;2023-09-19T14:51:12;5.83;;;2.40;;
13085;SDS011;6609;49.882;8.664;2023-09-19T14:53:39;4.70;;;2.00;;
13085;SDS011;6609;49.882;8.664;2023-09-19T14:56:08;7.80;;;3.10;;
13085;SDS011;6609;49.882;8.664;2023-09-19T14:58:36;5.73;;;2.53;;
13085;SDS011;6609;49.882;8.664;2023-09-19T15:01:04;9.50;;;2.57;;
13085;SDS011;6609;49.882;8.664;2023-09-19T15:03:31;7.60;;;2.70;;
13085;SDS011;6609;49.882;8.664;2023-09-19T15:05:58;7.77;;;2.80;;
13085;SDS011;6609;49.882;8.664;2023-09-19T15:08:26;8.63;;;3.30;;
13085;SDS011;6609;49.882;8.664;2023-09-19T15:10:53;5.80;;;2.50;;
13085;SDS011;6609;49.882;8.664;2023-09-19T15:13:22;6.53;;;2.57;;
13085;SDS011;6609;49.882;8.664;2023-09-19T15:15:53;6.20;;;2.33;;
13085;SDS011;6609;49.882;8.664;2023-09-19T15:18:24;8.60;;;3.00;;
13085;SDS011;6609;49.882;8.664;2023-09-19T15:20:52;6.90;;;2.60;;
13085;SDS011;6609;49.882;8.664;2023-09-19T15:23:19;7.73;;;2.63;;
13085;SDS011;6609;49.882;8.664;2023-09-19T15:25:47;6.03;;;2.07;;
13085;SDS011;6609;49.882;8.664;2023-09-19T15:28:14;7.43;;;2.63;;
13085;SDS011;6609;49.882;8.664;2023-09-19T15:30:43;6.50;;;2.40;;
13085;SDS011;6609;49.882;8.664;2023-09-19T15:33:10;5.83;;;2.53;;
13085;SDS011;6609;49.882;8.664;2023-09-19T15:35:37;5.13;;;2.03;;
13085;SDS011;6609;49.882;8.664;2023-09-19T15:38:05;5.50;;;2.13;;
13085;SDS011;6609;49.882;8.664;2023-09-19T15:40:32;10.20;;;3.20;;